Terminal Aerodrome Forecast
Issued by NWS Flagstaff, AZ

Home | Current Version | Previous Version | Text Only | Print | Product List | Glossary On
Versions: 1 2 3 4 5 6 7 8 9 10 11 12 13 14 15 16 17 18 19
000
FTUS45 KFGZ 012000 AAB
TAFINW
TAF AMD
KINW 012009Z 0120/0218 33010KT P6SM -RA OVC010
      TEMPO 0120/0123 SCT010 OVC015
     FM012300 19010G20KT P6SM SCT010 BKN040
     FM020200 18010KT P6SM FEW040 SCT070
     FM021200 18010G20KT P6SM OVC020=

USA.gov is the U.S. government's official web portal to all federal, state and local government web resources and services.